TimeEST,TemperatureF,Dew PointF,Humidity,Sea Level PressureIn,VisibilityMPH,Wind Direction,Wind SpeedMPH,Gust SpeedMPH,PrecipitationIn,Events,Conditions,WindDirDegrees,DateUTC
12:53 AM,7.0,-5.1,58,30.36,10.0,WNW,13.8,25.3,N/A,,Clear,300,2013-01-28 05:53:00
1:53 AM,6.1,-5.1,60,30.38,10.0,NW,10.4,-,N/A,,Clear,310,2013-01-28 06:53:00
2:53 AM,7.0,-6.0,55,30.37,10.0,NW,11.5,17.3,N/A,,Clear,310,2013-01-28 07:53:00
3:53 AM,7.0,-6.0,55,30.38,10.0,NW,9.2,-,N/A,,Clear,310,2013-01-28 08:53:00
4:53 AM,7.0,-7.1,53,30.38,10.0,NW,5.8,-,N/A,,Clear,310,2013-01-28 09:53:00
5:53 AM,6.1,-7.1,55,30.39,10.0,WNW,4.6,-,N/A,,Clear,300,2013-01-28 10:53:00
6:53 AM,6.1,-7.1,55,30.38,10.0,WNW,8.1,-,N/A,,Clear,300,2013-01-28 11:53:00
7:53 AM,8.1,-6.0,53,30.37,10.0,NW,9.2,-,N/A,,Clear,310,2013-01-28 12:53:00
8:53 AM,10.0,-6.0,48,30.36,-9999.0,WNW,5.8,-,N/A,,Clear,300,2013-01-28 13:53:00
9:53 AM,14.0,-5.1,43,30.35,-9999.0,Calm,Calm,-,N/A,,Clear,0,2013-01-28 14:53:00
10:53 AM,-9999,-9999,N/A,30.30,10.0,Variable,3.5,-,N/A,,Clear,0,2013-01-28 15:53:00
11:53 AM,21.0,-6.0,30,30.30,9.0,North,-9999.0,-,N/A,,Clear,0,2013-01-28 16:53:00
12:53 PM,23.0,-7.1,27,30.26,9.0,Variable,3.5,-,N/A,,Clear,0,2013-01-28 17:53:00
1:53 PM,25.0,-7.1,24,30.23,10.0,West,4.6,-,N/A,,Clear,280,2013-01-28 18:53:00
2:53 PM,25.0,-5.1,27,30.20,10.0,Calm,Calm,-,N/A,,Clear,0,2013-01-28 19:53:00
3:53 PM,25.0,-5.1,27,30.20,10.0,Calm,Calm,-,N/A,,Clear,0,2013-01-28 20:53:00
4:53 PM,23.0,-2.9,32,30.19,10.0,Calm,Calm,-,N/A,,Clear,0,2013-01-28 21:53:00
5:53 PM,19.9,-2.9,37,30.17,10.0,Calm,Calm,-,N/A,,Clear,0,2013-01-28 22:53:00
6:53 PM,16.0,-0.0,49,30.17,10.0,Calm,Calm,-,N/A,,Clear,0,2013-01-28 23:53:00
7:53 PM,12.0,-0.0,59,30.14,10.0,Calm,Calm,-,N/A,,Clear,0,2013-01-29 00:53:00
8:53 PM,10.0,1.0,67,30.13,10.0,Calm,Calm,-,N/A,,Clear,0,2013-01-29 01:53:00
9:53 PM,8.1,1.0,73,30.12,9.0,Calm,Calm,-,N/A,,Clear,0,2013-01-29 02:53:00
10:53 PM,8.1,1.0,73,30.08,7.0,Calm,Calm,-,N/A,,Clear,0,2013-01-29 03:53:00
11:53 PM,7.0,1.0,77,30.11,5.0,Calm,Calm,-,N/A,,Haze,0,2013-01-29 04:53:00